Jonestown, Texas
Current Conditions -  °F | °C
As of 3:55 PM on Monday 20 Oct 2014 (Local Time) from KRYW Reporting Station
Scattered Clouds Scattered Clouds  
Wind Chill: 27°   Ceiling: Unl
Heat Index: 27°   Visibility: 10mi
Dew Point: 14°   Wind: 9mph
Humidity: 45%   Direction: 50°NE
Pressure: 30.03"   Gusts: NA
Location:  30.4521°N, 97.9683°W
Report Text: KRYW 202055Z AUTO 05008KT 10SM SCT070 27/14 A3003 RMK AO2 T02710141
Loading
Personal Weather Stations






























Interactive Weather Map
Tropical Storm Tracking
New forecast layout! Learn more

10-Day Weather Forecast

Advertisements
Track Severe Weather on mobile